sensor_id;sensor_type;location;lat;lon;timestamp;P1;durP1;ratioP1;P2;durP2;ratioP2
72358;SDS011;60317;48.880;-0.862;2023-04-15T00:01:03;3.20;;;1.05;;
72358;SDS011;60317;48.880;-0.862;2023-04-15T00:03:31;2.65;;;0.98;;
72358;SDS011;60317;48.880;-0.862;2023-04-15T00:05:58;3.47;;;0.90;;
72358;SDS011;60317;48.880;-0.862;2023-04-15T00:08:25;2.10;;;0.88;;
72358;SDS011;60317;48.880;-0.862;2023-04-15T00:10:51;1.98;;;0.90;;
72358;SDS011;60317;48.880;-0.862;2023-04-15T00:13:18;2.95;;;0.85;;
72358;SDS011;60317;48.880;-0.862;2023-04-15T00:15:45;1.25;;;0.75;;
72358;SDS011;60317;48.880;-0.862;2023-04-15T00:18:11;2.17;;;0.90;;
72358;SDS011;60317;48.880;-0.862;2023-04-15T00:20:39;2.58;;;0.98;;
72358;SDS011;60317;48.880;-0.862;2023-04-15T00:23:05;1.45;;;0.85;;
72358;SDS011;60317;48.880;-0.862;2023-04-15T00:25:32;1.05;;;0.60;;
72358;SDS011;60317;48.880;-0.862;2023-04-15T00:27:58;1.13;;;0.70;;
72358;SDS011;60317;48.880;-0.862;2023-04-15T00:30:25;3.95;;;0.90;;
72358;SDS011;60317;48.880;-0.862;2023-04-15T00:32:51;0.60;;;0.60;;
72358;SDS011;60317;48.880;-0.862;2023-04-15T00:35:18;1.50;;;0.90;;
72358;SDS011;60317;48.880;-0.862;2023-04-15T00:37:46;1.65;;;0.90;;
72358;SDS011;60317;48.880;-0.862;2023-04-15T00:40:12;3.47;;;0.77;;
72358;SDS011;60317;48.880;-0.862;2023-04-15T00:42:42;1.33;;;0.80;;
72358;SDS011;60317;48.880;-0.862;2023-04-15T00:45:09;3.35;;;0.93;;
72358;SDS011;60317;48.880;-0.862;2023-04-15T00:47:36;1.98;;;0.85;;
72358;SDS011;60317;48.880;-0.862;2023-04-15T00:50:04;1.25;;;0.60;;
72358;SDS011;60317;48.880;-0.862;2023-04-15T00:52:31;2.42;;;0.75;;
72358;SDS011;60317;48.880;-0.862;2023-04-15T00:54:59;1.58;;;0.70;;
72358;SDS011;60317;48.880;-0.862;2023-04-15T00:57:26;2.78;;;0.80;;
72358;SDS011;60317;48.880;-0.862;2023-04-15T00:59:54;2.95;;;0.88;;
72358;SDS011;60317;48.880;-0.862;2023-04-15T01:02:21;1.27;;;0.57;;
72358;SDS011;60317;48.880;-0.862;2023-04-15T01:04:48;3.13;;;1.00;;
72358;SDS011;60317;48.880;-0.862;2023-04-15T01:07:15;2.45;;;0.65;;
72358;SDS011;60317;48.880;-0.862;2023-04-15T01:09:42;1.20;;;0.57;;
72358;SDS011;60317;48.880;-0.862;2023-04-15T01:12:11;2.42;;;0.60;;
72358;SDS011;60317;48.880;-0.862;2023-04-15T01:14:39;2.58;;;0.98;;
72358;SDS011;60317;48.880;-0.862;2023-04-15T01:17:05;1.63;;;0.68;;
72358;SDS011;60317;48.880;-0.862;2023-04-15T01:19:32;1.35;;;0.57;;
72358;SDS011;60317;48.880;-0.862;2023-04-15T01:21:58;1.25;;;0.50;;
72358;SDS011;60317;48.880;-0.862;2023-04-15T01:24:25;1.73;;;0.75;;
72358;SDS011;60317;48.880;-0.862;2023-04-15T01:26:54;1.92;;;0.82;;
72358;SDS011;60317;48.880;-0.862;2023-04-15T01:29:21;2.65;;;0.90;;
72358;SDS011;60317;48.880;-0.862;2023-04-15T01:31:49;2.70;;;0.95;;
72358;SDS011;60317;48.880;-0.862;2023-04-15T01:34:16;0.75;;;0.40;;
72358;SDS011;60317;48.880;-0.862;2023-04-15T01:36:42;1.10;;;0.52;;
72358;SDS011;60317;48.880;-0.862;2023-04-15T01:39:09;0.60;;;0.52;;
72358;SDS011;60317;48.880;-0.862;2023-04-15T01:41:36;2.45;;;0.68;;
72358;SDS011;60317;48.880;-0.862;2023-04-15T01:44:03;2.15;;;0.57;;
72358;SDS011;60317;48.880;-0.862;2023-04-15T01:46:30;1.75;;;0.60;;
72358;SDS011;60317;48.880;-0.862;2023-04-15T01:48:56;1.63;;;0.63;;
72358;SDS011;60317;48.880;-0.862;2023-04-15T01:51:24;1.05;;;0.40;;
72358;SDS011;60317;48.880;-0.862;2023-04-15T01:53:50;1.13;;;0.70;;
72358;SDS011;60317;48.880;-0.862;2023-04-15T01:56:16;1.30;;;0.50;;
72358;SDS011;60317;48.880;-0.862;2023-04-15T01:58:43;1.27;;;0.63;;
72358;SDS011;60317;48.880;-0.862;2023-04-15T02:01:11;1.25;;;0.50;;
72358;SDS011;60317;48.880;-0.862;2023-04-15T02:03:37;1.52;;;0.65;;
72358;SDS011;60317;48.880;-0.862;2023-04-15T02:06:04;2.53;;;0.70;;
72358;SDS011;60317;48.880;-0.862;2023-04-15T02:08:31;1.67;;;0.68;;
72358;SDS011;60317;48.880;-0.862;2023-04-15T02:10:57;1.65;;;0.80;;
72358;SDS011;60317;48.880;-0.862;2023-04-15T02:13:24;2.00;;;0.60;;
72358;SDS011;60317;48.880;-0.862;2023-04-15T02:15:50;1.13;;;0.40;;
72358;SDS011;60317;48.880;-0.862;2023-04-15T02:18:18;1.65;;;0.60;;
72358;SDS011;60317;48.880;-0.862;2023-04-15T02:20:44;2.13;;;0.60;;
72358;SDS011;60317;48.880;-0.862;2023-04-15T02:23:11;1.30;;;0.70;;
72358;SDS011;60317;48.880;-0.862;2023-04-15T02:25:38;1.98;;;0.73;;
72358;SDS011;60317;48.880;-0.862;2023-04-15T02:28:04;1.30;;;0.68;;
72358;SDS011;60317;48.880;-0.862;2023-04-15T02:30:31;2.33;;;0.60;;
72358;SDS011;60317;48.880;-0.862;2023-04-15T02:32:58;1.80;;;0.60;;
72358;SDS011;60317;48.880;-0.862;2023-04-15T02:35:26;1.60;;;0.47;;
72358;SDS011;60317;48.880;-0.862;2023-04-15T02:37:53;1.63;;;0.90;;
72358;SDS011;60317;48.880;-0.862;2023-04-15T02:40:19;1.45;;;0.45;;
72358;SDS011;60317;48.880;-0.862;2023-04-15T02:42:46;2.20;;;0.68;;
72358;SDS011;60317;48.880;-0.862;2023-04-15T02:45:12;6.72;;;1.05;;
72358;SDS011;60317;48.880;-0.862;2023-04-15T02:47:39;3.42;;;1.00;;
72358;SDS011;60317;48.880;-0.862;2023-04-15T02:50:06;2.28;;;0.75;;
72358;SDS011;60317;48.880;-0.862;2023-04-15T02:52:35;1.75;;;0.50;;
72358;SDS011;60317;48.880;-0.862;2023-04-15T02:55:02;2.35;;;0.70;;
72358;SDS011;60317;48.880;-0.862;2023-04-15T02:57:28;1.73;;;0.70;;
72358;SDS011;60317;48.880;-0.862;2023-04-15T02:59:55;2.40;;;0.68;;
72358;SDS011;60317;48.880;-0.862;2023-04-15T03:02:21;1.80;;;0.90;;
72358;SDS011;60317;48.880;-0.862;2023-04-15T03:04:48;2.65;;;0.70;;
72358;SDS011;60317;48.880;-0.862;2023-04-15T03:07:16;2.67;;;0.93;;
72358;SDS011;60317;48.880;-0.862;2023-04-15T03:09:44;1.08;;;0.50;;
72358;SDS011;60317;48.880;-0.862;2023-04-15T03:12:10;1.65;;;0.60;;
72358;SDS011;60317;48.880;-0.862;2023-04-15T03:14:37;2.13;;;0.63;;
72358;SDS011;60317;48.880;-0.862;2023-04-15T03:17:03;1.80;;;0.73;;
72358;SDS011;60317;48.880;-0.862;2023-04-15T03:19:30;1.48;;;0.55;;
72358;SDS011;60317;48.880;-0.862;2023-04-15T03:21:56;1.98;;;0.68;;
72358;SDS011;60317;48.880;-0.862;2023-04-15T03:24:23;1.52;;;0.55;;
72358;SDS011;60317;48.880;-0.862;2023-04-15T03:26:51;3.22;;;0.77;;
72358;SDS011;60317;48.880;-0.862;2023-04-15T03:29:17;1.80;;;0.50;;
72358;SDS011;60317;48.880;-0.862;2023-04-15T03:31:44;1.25;;;0.50;;
72358;SDS011;60317;48.880;-0.862;2023-04-15T03:34:10;1.27;;;0.55;;
72358;SDS011;60317;48.880;-0.862;2023-04-15T03:36:37;1.65;;;0.68;;
72358;SDS011;60317;48.880;-0.862;2023-04-15T03:39:03;3.45;;;1.02;;
72358;SDS011;60317;48.880;-0.862;2023-04-15T03:41:30;1.40;;;0.90;;
72358;SDS011;60317;48.880;-0.862;2023-04-15T03:43:58;4.18;;;0.70;;
72358;SDS011;60317;48.880;-0.862;2023-04-15T03:46:24;2.08;;;0.60;;
72358;SDS011;60317;48.880;-0.862;2023-04-15T03:48:51;1.38;;;0.57;;
72358;SDS011;60317;48.880;-0.862;2023-04-15T03:51:18;2.17;;;0.63;;
72358;SDS011;60317;48.880;-0.862;2023-04-15T03:53:45;2.15;;;0.68;;
72358;SDS011;60317;48.880;-0.862;2023-04-15T03:56:11;1.50;;;0.70;;
72358;SDS011;60317;48.880;-0.862;2023-04-15T03:58:38;2.42;;;0.50;;
72358;SDS011;60317;48.880;-0.862;2023-04-15T04:01:05;0.88;;;0.50;;
72358;SDS011;60317;48.880;-0.862;2023-04-15T04:03:32;0.63;;;0.40;;
72358;SDS011;60317;48.880;-0.862;2023-04-15T04:05:59;1.58;;;0.70;;
72358;SDS011;60317;48.880;-0.862;2023-04-15T04:08:25;1.98;;;0.50;;
72358;SDS011;60317;48.880;-0.862;2023-04-15T04:10:52;1.42;;;0.65;;
72358;SDS011;60317;48.880;-0.862;2023-04-15T04:13:18;2.05;;;0.60;;
72358;SDS011;60317;48.880;-0.862;2023-04-15T04:15:45;1.50;;;0.50;;
72358;SDS011;60317;48.880;-0.862;2023-04-15T04:18:13;1.05;;;0.50;;
72358;SDS011;60317;48.880;-0.862;2023-04-15T04:20:39;3.35;;;0.77;;
72358;SDS011;60317;48.880;-0.862;2023-04-15T04:23:06;1.83;;;0.70;;
72358;SDS011;60317;48.880;-0.862;2023-04-15T04:25:33;1.33;;;0.60;;
72358;SDS011;60317;48.880;-0.862;2023-04-15T04:27:59;1.13;;;0.47;;
72358;SDS011;60317;48.880;-0.862;2023-04-15T04:30:26;2.00;;;0.70;;
72358;SDS011;60317;48.880;-0.862;2023-04-15T04:32:52;1.58;;;0.60;;
72358;SDS011;60317;48.880;-0.862;2023-04-15T04:35:20;1.25;;;0.50;;
72358;SDS011;60317;48.880;-0.862;2023-04-15T04:37:47;1.90;;;0.70;;
72358;SDS011;60317;48.880;-0.862;2023-04-15T04:40:13;2.08;;;0.52;;
72358;SDS011;60317;48.880;-0.862;2023-04-15T04:42:40;1.55;;;0.50;;
72358;SDS011;60317;48.880;-0.862;2023-04-15T04:45:06;1.40;;;0.70;;
72358;SDS011;60317;48.880;-0.862;2023-04-15T04:47:33;1.50;;;0.50;;
72358;SDS011;60317;48.880;-0.862;2023-04-15T04:50:00;1.48;;;0.60;;
72358;SDS011;60317;48.880;-0.862;2023-04-15T04:52:28;3.78;;;0.98;;
72358;SDS011;60317;48.880;-0.862;2023-04-15T04:54:54;1.73;;;0.57;;
72358;SDS011;60317;48.880;-0.862;2023-04-15T04:57:21;2.20;;;0.77;;
72358;SDS011;60317;48.880;-0.862;2023-04-15T04:59:47;1.05;;;0.57;;
72358;SDS011;60317;48.880;-0.862;2023-04-15T05:02:14;1.85;;;0.50;;
72358;SDS011;60317;48.880;-0.862;2023-04-15T05:04:40;1.30;;;0.68;;
72358;SDS011;60317;48.880;-0.862;2023-04-15T05:07:07;1.38;;;0.60;;
72358;SDS011;60317;48.880;-0.862;2023-04-15T05:09:35;1.92;;;0.70;;
72358;SDS011;60317;48.880;-0.862;2023-04-15T05:12:01;1.63;;;0.70;;
72358;SDS011;60317;48.880;-0.862;2023-04-15T05:14:28;2.33;;;0.63;;
72358;SDS011;60317;48.880;-0.862;2023-04-15T05:16:55;2.00;;;0.73;;
72358;SDS011;60317;48.880;-0.862;2023-04-15T05:19:21;2.33;;;0.73;;
72358;SDS011;60317;48.880;-0.862;2023-04-15T05:21:48;1.80;;;0.60;;
72358;SDS011;60317;48.880;-0.862;2023-04-15T05:24:15;1.38;;;0.60;;
72358;SDS011;60317;48.880;-0.862;2023-04-15T05:26:42;2.95;;;0.88;;
72358;SDS011;60317;48.880;-0.862;2023-04-15T05:29:09;2.20;;;0.80;;
72358;SDS011;60317;48.880;-0.862;2023-04-15T05:31:35;1.42;;;0.52;;
72358;SDS011;60317;48.880;-0.862;2023-04-15T05:34:02;2.08;;;0.80;;
72358;SDS011;60317;48.880;-0.862;2023-04-15T05:36:29;2.33;;;0.90;;
72358;SDS011;60317;48.880;-0.862;2023-04-15T05:38:55;1.38;;;0.85;;
72358;SDS011;60317;48.880;-0.862;2023-04-15T05:41:21;2.70;;;1.00;;
72358;SDS011;60317;48.880;-0.862;2023-04-15T05:43:49;2.42;;;0.63;;
72358;SDS011;60317;48.880;-0.862;2023-04-15T05:46:16;3.08;;;0.90;;
72358;SDS011;60317;48.880;-0.862;2023-04-15T05:48:42;2.17;;;0.70;;
72358;SDS011;60317;48.880;-0.862;2023-04-15T05:51:09;2.63;;;0.82;;
72358;SDS011;60317;48.880;-0.862;2023-04-15T05:53:35;2.63;;;0.93;;
72358;SDS011;60317;48.880;-0.862;2023-04-15T05:56:02;2.20;;;0.68;;
72358;SDS011;60317;48.880;-0.862;2023-04-15T05:58:29;1.50;;;0.57;;
72358;SDS011;60317;48.880;-0.862;2023-04-15T06:00:57;1.85;;;0.65;;
72358;SDS011;60317;48.880;-0.862;2023-04-15T06:03:24;1.63;;;0.80;;
72358;SDS011;60317;48.880;-0.862;2023-04-15T06:05:50;1.42;;;0.65;;
72358;SDS011;60317;48.880;-0.862;2023-04-15T06:08:17;2.03;;;0.80;;
72358;SDS011;60317;48.880;-0.862;2023-04-15T06:10:43;1.98;;;0.77;;
72358;SDS011;60317;48.880;-0.862;2023-04-15T06:13:10;2.13;;;0.85;;
72358;SDS011;60317;48.880;-0.862;2023-04-15T06:15:36;3.25;;;1.27;;
72358;SDS011;60317;48.880;-0.862;2023-04-15T06:18:04;2.97;;;1.00;;
72358;SDS011;60317;48.880;-0.862;2023-04-15T06:20:31;2.47;;;1.08;;
72358;SDS011;60317;48.880;-0.862;2023-04-15T06:22:57;2.85;;;0.80;;
72358;SDS011;60317;48.880;-0.862;2023-04-15T06:25:24;2.75;;;1.02;;
72358;SDS011;60317;48.880;-0.862;2023-04-15T06:27:50;1.80;;;0.80;;
72358;SDS011;60317;48.880;-0.862;2023-04-15T06:30:17;3.50;;;1.10;;
72358;SDS011;60317;48.880;-0.862;2023-04-15T06:32:44;2.00;;;0.70;;
72358;SDS011;60317;48.880;-0.862;2023-04-15T06:35:11;5.68;;;1.15;;
72358;SDS011;60317;48.880;-0.862;2023-04-15T06:37:38;2.88;;;1.00;;
72358;SDS011;60317;48.880;-0.862;2023-04-15T06:40:05;2.22;;;0.82;;
72358;SDS011;60317;48.880;-0.862;2023-04-15T06:42:32;1.92;;;0.88;;
72358;SDS011;60317;48.880;-0.862;2023-04-15T06:44:59;3.58;;;1.10;;
72358;SDS011;60317;48.880;-0.862;2023-04-15T06:47:26;2.65;;;1.00;;
72358;SDS011;60317;48.880;-0.862;2023-04-15T06:49:52;3.53;;;1.02;;
72358;SDS011;60317;48.880;-0.862;2023-04-15T06:52:20;2.08;;;0.90;;
72358;SDS011;60317;48.880;-0.862;2023-04-15T06:54:46;3.47;;;1.30;;
72358;SDS011;60317;48.880;-0.862;2023-04-15T06:57:13;3.03;;;1.00;;
72358;SDS011;60317;48.880;-0.862;2023-04-15T06:59:39;1.52;;;0.60;;
72358;SDS011;60317;48.880;-0.862;2023-04-15T07:02:06;3.55;;;1.00;;
72358;SDS011;60317;48.880;-0.862;2023-04-15T07:04:37;3.53;;;0.95;;
72358;SDS011;60317;48.880;-0.862;2023-04-15T07:07:03;6.18;;;1.17;;
72358;SDS011;60317;48.880;-0.862;2023-04-15T07:09:31;4.18;;;1.08;;
72358;SDS011;60317;48.880;-0.862;2023-04-15T07:11:58;1.95;;;0.80;;
72358;SDS011;60317;48.880;-0.862;2023-04-15T07:14:24;2.30;;;1.17;;
72358;SDS011;60317;48.880;-0.862;2023-04-15T07:16:51;2.42;;;1.00;;
72358;SDS011;60317;48.880;-0.862;2023-04-15T07:19:17;1.95;;;0.82;;
72358;SDS011;60317;48.880;-0.862;2023-04-15T07:21:44;3.22;;;0.95;;
72358;SDS011;60317;48.880;-0.862;2023-04-15T07:24:10;2.60;;;1.10;;
72358;SDS011;60317;48.880;-0.862;2023-04-15T07:26:38;2.90;;;1.10;;
72358;SDS011;60317;48.880;-0.862;2023-04-15T07:29:04;2.10;;;1.10;;
72358;SDS011;60317;48.880;-0.862;2023-04-15T07:31:31;2.10;;;1.00;;
72358;SDS011;60317;48.880;-0.862;2023-04-15T07:33:57;2.53;;;1.05;;
72358;SDS011;60317;48.880;-0.862;2023-04-15T07:36:24;3.25;;;1.13;;
72358;SDS011;60317;48.880;-0.862;2023-04-15T07:38:50;3.78;;;1.35;;
72358;SDS011;60317;48.880;-0.862;2023-04-15T07:41:17;2.47;;;1.10;;
72358;SDS011;60317;48.880;-0.862;2023-04-15T07:43:45;1.60;;;0.90;;
72358;SDS011;60317;48.880;-0.862;2023-04-15T07:46:11;5.43;;;1.40;;
72358;SDS011;60317;48.880;-0.862;2023-04-15T07:48:38;2.05;;;1.05;;
72358;SDS011;60317;48.880;-0.862;2023-04-15T07:51:05;2.20;;;1.10;;
72358;SDS011;60317;48.880;-0.862;2023-04-15T07:53:31;1.52;;;0.90;;
72358;SDS011;60317;48.880;-0.862;2023-04-15T07:55:58;4.03;;;1.60;;
72358;SDS011;60317;48.880;-0.862;2023-04-15T07:58:24;2.78;;;1.00;;
72358;SDS011;60317;48.880;-0.862;2023-04-15T08:00:52;3.03;;;1.20;;
72358;SDS011;60317;48.880;-0.862;2023-04-15T08:03:18;4.82;;;1.50;;
72358;SDS011;60317;48.880;-0.862;2023-04-15T08:05:46;3.60;;;1.40;;
72358;SDS011;60317;48.880;-0.862;2023-04-15T08:08:13;3.33;;;1.00;;
72358;SDS011;60317;48.880;-0.862;2023-04-15T08:10:39;3.25;;;1.25;;
72358;SDS011;60317;48.880;-0.862;2023-04-15T08:13:06;2.72;;;1.08;;
72358;SDS011;60317;48.880;-0.862;2023-04-15T08:15:32;5.88;;;1.20;;
72358;SDS011;60317;48.880;-0.862;2023-04-15T08:18:00;2.25;;;1.00;;
72358;SDS011;60317;48.880;-0.862;2023-04-15T08:20:27;5.43;;;1.08;;
72358;SDS011;60317;48.880;-0.862;2023-04-15T08:22:53;3.00;;;1.30;;
72358;SDS011;60317;48.880;-0.862;2023-04-15T08:25:20;4.28;;;1.30;;
72358;SDS011;60317;48.880;-0.862;2023-04-15T08:27:46;3.72;;;1.10;;
72358;SDS011;60317;48.880;-0.862;2023-04-15T08:30:13;4.63;;;1.50;;
72358;SDS011;60317;48.880;-0.862;2023-04-15T08:32:40;2.13;;;1.20;;
72358;SDS011;60317;48.880;-0.862;2023-04-15T08:35:09;3.53;;;1.27;;
72358;SDS011;60317;48.880;-0.862;2023-04-15T08:37:35;1.63;;;1.00;;
72358;SDS011;60317;48.880;-0.862;2023-04-15T08:40:02;2.58;;;1.17;;
72358;SDS011;60317;48.880;-0.862;2023-04-15T08:42:30;1.73;;;0.85;;
72358;SDS011;60317;48.880;-0.862;2023-04-15T08:44:59;2.63;;;1.15;;
72358;SDS011;60317;48.880;-0.862;2023-04-15T08:47:29;5.03;;;1.42;;
72358;SDS011;60317;48.880;-0.862;2023-04-15T08:49:56;4.30;;;0.82;;
72358;SDS011;60317;48.880;-0.862;2023-04-15T08:52:25;2.55;;;1.02;;
72358;SDS011;60317;48.880;-0.862;2023-04-15T08:54:51;1.85;;;0.90;;
72358;SDS011;60317;48.880;-0.862;2023-04-15T08:57:22;2.85;;;1.00;;
72358;SDS011;60317;48.880;-0.862;2023-04-15T08:59:49;3.15;;;1.00;;
72358;SDS011;60317;48.880;-0.862;2023-04-15T09:02:17;2.92;;;1.20;;
72358;SDS011;60317;48.880;-0.862;2023-04-15T09:04:44;1.45;;;0.85;;
72358;SDS011;60317;48.880;-0.862;2023-04-15T09:07:11;3.22;;;1.05;;
72358;SDS011;60317;48.880;-0.862;2023-04-15T09:09:39;2.83;;;0.80;;
72358;SDS011;60317;48.880;-0.862;2023-04-15T09:12:05;2.20;;;1.10;;
72358;SDS011;60317;48.880;-0.862;2023-04-15T09:14:33;2.30;;;1.10;;
72358;SDS011;60317;48.880;-0.862;2023-04-15T09:17:00;4.13;;;1.20;;
72358;SDS011;60317;48.880;-0.862;2023-04-15T09:19:28;3.78;;;1.00;;
72358;SDS011;60317;48.880;-0.862;2023-04-15T09:21:55;2.42;;;1.02;;
72358;SDS011;60317;48.880;-0.862;2023-04-15T09:24:25;2.80;;;0.90;;
72358;SDS011;60317;48.880;-0.862;2023-04-15T09:27:00;4.93;;;1.10;;
72358;SDS011;60317;48.880;-0.862;2023-04-15T09:29:26;2.08;;;0.90;;
72358;SDS011;60317;48.880;-0.862;2023-04-15T09:31:53;2.45;;;0.95;;
72358;SDS011;60317;48.880;-0.862;2023-04-15T09:34:19;1.73;;;0.93;;
72358;SDS011;60317;48.880;-0.862;2023-04-15T09:36:56;1.48;;;0.90;;
72358;SDS011;60317;48.880;-0.862;2023-04-15T09:39:22;4.05;;;1.08;;
72358;SDS011;60317;48.880;-0.862;2023-04-15T09:42:04;2.95;;;0.93;;
72358;SDS011;60317;48.880;-0.862;2023-04-15T09:44:31;2.40;;;0.80;;
72358;SDS011;60317;48.880;-0.862;2023-04-15T09:46:57;2.03;;;0.90;;
72358;SDS011;60317;48.880;-0.862;2023-04-15T09:49:24;2.78;;;0.85;;
72358;SDS011;60317;48.880;-0.862;2023-04-15T09:51:51;3.72;;;1.08;;
72358;SDS011;60317;48.880;-0.862;2023-04-15T09:54:32;2.47;;;1.00;;
72358;SDS011;60317;48.880;-0.862;2023-04-15T09:57:05;2.30;;;0.90;;
72358;SDS011;60317;48.880;-0.862;2023-04-15T09:59:32;1.52;;;0.90;;
72358;SDS011;60317;48.880;-0.862;2023-04-15T10:01:59;2.88;;;1.00;;
72358;SDS011;60317;48.880;-0.862;2023-04-15T10:04:28;3.95;;;0.77;;
72358;SDS011;60317;48.880;-0.862;2023-04-15T10:06:56;1.63;;;0.68;;
72358;SDS011;60317;48.880;-0.862;2023-04-15T10:09:24;2.85;;;0.85;;
72358;SDS011;60317;48.880;-0.862;2023-04-15T10:11:52;1.52;;;0.95;;
72358;SDS011;60317;48.880;-0.862;2023-04-15T10:14:19;3.35;;;0.88;;
72358;SDS011;60317;48.880;-0.862;2023-04-15T10:16:47;1.63;;;0.80;;
72358;SDS011;60317;48.880;-0.862;2023-04-15T10:19:14;1.90;;;0.80;;
72358;SDS011;60317;48.880;-0.862;2023-04-15T10:21:44;1.67;;;0.73;;
72358;SDS011;60317;48.880;-0.862;2023-04-15T10:24:11;2.40;;;0.88;;
72358;SDS011;60317;48.880;-0.862;2023-04-15T10:26:38;1.65;;;0.90;;
72358;SDS011;60317;48.880;-0.862;2023-04-15T10:29:05;2.33;;;1.20;;
72358;SDS011;60317;48.880;-0.862;2023-04-15T10:31:34;2.58;;;0.80;;
72358;SDS011;60317;48.880;-0.862;2023-04-15T10:34:02;1.02;;;0.70;;
72358;SDS011;60317;48.880;-0.862;2023-04-15T10:36:29;2.63;;;0.85;;
72358;SDS011;60317;48.880;-0.862;2023-04-15T10:38:56;1.08;;;0.60;;
72358;SDS011;60317;48.880;-0.862;2023-04-15T10:41:23;1.83;;;0.80;;
72358;SDS011;60317;48.880;-0.862;2023-04-15T10:43:51;1.17;;;0.75;;
72358;SDS011;60317;48.880;-0.862;2023-04-15T10:46:20;3.30;;;0.63;;
72358;SDS011;60317;48.880;-0.862;2023-04-15T10:48:51;1.33;;;0.50;;
72358;SDS011;60317;48.880;-0.862;2023-04-15T10:51:25;1.55;;;0.63;;
72358;SDS011;60317;48.880;-0.862;2023-04-15T10:53:55;1.60;;;0.63;;
72358;SDS011;60317;48.880;-0.862;2023-04-15T10:56:22;1.08;;;0.60;;
72358;SDS011;60317;48.880;-0.862;2023-04-15T10:58:49;2.97;;;0.63;;
72358;SDS011;60317;48.880;-0.862;2023-04-15T11:01:15;0.73;;;0.50;;
72358;SDS011;60317;48.880;-0.862;2023-04-15T11:03:42;2.17;;;0.90;;
72358;SDS011;60317;48.880;-0.862;2023-04-15T11:06:10;1.33;;;0.75;;
72358;SDS011;60317;48.880;-0.862;2023-04-15T11:11:22;1.25;;;0.52;;
72358;SDS011;60317;48.880;-0.862;2023-04-15T11:14:13;0.80;;;0.60;;
72358;SDS011;60317;48.880;-0.862;2023-04-15T11:16:41;0.85;;;0.43;;
72358;SDS011;60317;48.880;-0.862;2023-04-15T11:19:08;2.85;;;0.85;;
72358;SDS011;60317;48.880;-0.862;2023-04-15T11:21:36;2.47;;;0.73;;
72358;SDS011;60317;48.880;-0.862;2023-04-15T11:24:02;1.35;;;0.55;;
72358;SDS011;60317;48.880;-0.862;2023-04-15T11:26:29;1.65;;;0.43;;
72358;SDS011;60317;48.880;-0.862;2023-04-15T11:28:55;2.55;;;0.90;;
72358;SDS011;60317;48.880;-0.862;2023-04-15T11:31:22;2.05;;;0.60;;
72358;SDS011;60317;48.880;-0.862;2023-04-15T11:33:53;1.10;;;0.55;;
72358;SDS011;60317;48.880;-0.862;2023-04-15T11:36:22;0.85;;;0.60;;
72358;SDS011;60317;48.880;-0.862;2023-04-15T11:38:51;1.55;;;0.75;;
72358;SDS011;60317;48.880;-0.862;2023-04-15T11:41:19;1.65;;;0.50;;
72358;SDS011;60317;48.880;-0.862;2023-04-15T11:43:46;2.58;;;0.60;;
72358;SDS011;60317;48.880;-0.862;2023-04-15T11:46:12;0.95;;;0.60;;
72358;SDS011;60317;48.880;-0.862;2023-04-15T11:48:41;0.50;;;0.43;;
72358;SDS011;60317;48.880;-0.862;2023-04-15T11:51:08;2.03;;;0.55;;
72358;SDS011;60317;48.880;-0.862;2023-04-15T11:53:35;2.72;;;0.40;;
72358;SDS011;60317;48.880;-0.862;2023-04-15T11:56:04;1.65;;;0.45;;
72358;SDS011;60317;48.880;-0.862;2023-04-15T11:58:33;1.15;;;0.40;;
72358;SDS011;60317;48.880;-0.862;2023-04-15T12:01:00;0.65;;;0.30;;
72358;SDS011;60317;48.880;-0.862;2023-04-15T12:03:27;1.35;;;0.50;;
72358;SDS011;60317;48.880;-0.862;2023-04-15T12:08:47;0.63;;;0.40;;
72358;SDS011;60317;48.880;-0.862;2023-04-15T12:11:15;0.55;;;0.38;;
72358;SDS011;60317;48.880;-0.862;2023-04-15T12:13:42;1.45;;;0.40;;
72358;SDS011;60317;48.880;-0.862;2023-04-15T12:16:09;1.42;;;0.40;;
72358;SDS011;60317;48.880;-0.862;2023-04-15T12:18:36;2.05;;;0.70;;
72358;SDS011;60317;48.880;-0.862;2023-04-15T12:21:03;1.80;;;0.45;;
72358;SDS011;60317;48.880;-0.862;2023-04-15T12:23:36;0.35;;;0.35;;
72358;SDS011;60317;48.880;-0.862;2023-04-15T12:26:03;2.15;;;0.80;;
72358;SDS011;60317;48.880;-0.862;2023-04-15T12:28:32;1.83;;;0.35;;
72358;SDS011;60317;48.880;-0.862;2023-04-15T12:30:59;1.27;;;0.47;;
72358;SDS011;60317;48.880;-0.862;2023-04-15T12:33:31;1.25;;;0.40;;
72358;SDS011;60317;48.880;-0.862;2023-04-15T12:35:58;2.25;;;0.38;;
72358;SDS011;60317;48.880;-0.862;2023-04-15T12:38:25;0.73;;;0.30;;
72358;SDS011;60317;48.880;-0.862;2023-04-15T12:40:51;0.40;;;0.38;;
72358;SDS011;60317;48.880;-0.862;2023-04-15T12:43:19;0.50;;;0.40;;
72358;SDS011;60317;48.880;-0.862;2023-04-15T12:45:46;1.58;;;0.57;;
72358;SDS011;60317;48.880;-0.862;2023-04-15T12:48:13;1.40;;;0.38;;
72358;SDS011;60317;48.880;-0.862;2023-04-15T12:50:40;1.65;;;0.50;;
72358;SDS011;60317;48.880;-0.862;2023-04-15T12:53:06;0.43;;;0.32;;
72358;SDS011;60317;48.880;-0.862;2023-04-15T12:55:33;0.95;;;0.40;;
72358;SDS011;60317;48.880;-0.862;2023-04-15T12:57:59;0.40;;;0.30;;
72358;SDS011;60317;48.880;-0.862;2023-04-15T13:00:26;1.13;;;0.40;;
72358;SDS011;60317;48.880;-0.862;2023-04-15T13:02:54;0.70;;;0.40;;
72358;SDS011;60317;48.880;-0.862;2023-04-15T13:05:20;1.50;;;0.50;;
72358;SDS011;60317;48.880;-0.862;2023-04-15T13:07:47;1.48;;;0.68;;
72358;SDS011;60317;48.880;-0.862;2023-04-15T13:10:13;1.10;;;0.40;;
72358;SDS011;60317;48.880;-0.862;2023-04-15T13:12:40;1.00;;;0.43;;
72358;SDS011;60317;48.880;-0.862;2023-04-15T13:15:06;2.30;;;0.50;;
72358;SDS011;60317;48.880;-0.862;2023-04-15T13:17:33;0.80;;;0.47;;
72358;SDS011;60317;48.880;-0.862;2023-04-15T13:20:01;1.65;;;0.50;;
72358;SDS011;60317;48.880;-0.862;2023-04-15T13:22:28;1.02;;;0.30;;
72358;SDS011;60317;48.880;-0.862;2023-04-15T13:24:55;1.27;;;0.57;;
72358;SDS011;60317;48.880;-0.862;2023-04-15T13:27:21;0.60;;;0.55;;
72358;SDS011;60317;48.880;-0.862;2023-04-15T13:29:47;1.67;;;0.50;;
72358;SDS011;60317;48.880;-0.862;2023-04-15T13:32:14;1.08;;;0.50;;
72358;SDS011;60317;48.880;-0.862;2023-04-15T13:34:40;0.60;;;0.30;;
72358;SDS011;60317;48.880;-0.862;2023-04-15T13:37:08;1.35;;;0.50;;
72358;SDS011;60317;48.880;-0.862;2023-04-15T13:39:35;1.35;;;0.40;;
72358;SDS011;60317;48.880;-0.862;2023-04-15T13:42:01;0.73;;;0.30;;
72358;SDS011;60317;48.880;-0.862;2023-04-15T13:44:28;1.23;;;0.50;;
72358;SDS011;60317;48.880;-0.862;2023-04-15T13:46:54;1.15;;;0.50;;
72358;SDS011;60317;48.880;-0.862;2023-04-15T13:49:21;0.77;;;0.30;;
72358;SDS011;60317;48.880;-0.862;2023-04-15T13:51:47;0.70;;;0.50;;
72358;SDS011;60317;48.880;-0.862;2023-04-15T13:54:15;0.52;;;0.38;;
72358;SDS011;60317;48.880;-0.862;2023-04-15T13:56:42;2.55;;;0.50;;
72358;SDS011;60317;48.880;-0.862;2023-04-15T13:59:08;1.08;;;0.50;;
72358;SDS011;60317;48.880;-0.862;2023-04-15T14:01:35;1.45;;;0.57;;
72358;SDS011;60317;48.880;-0.862;2023-04-15T14:04:01;0.95;;;0.38;;
72358;SDS011;60317;48.880;-0.862;2023-04-15T14:06:28;0.90;;;0.43;;
72358;SDS011;60317;48.880;-0.862;2023-04-15T14:08:55;1.30;;;0.35;;
72358;SDS011;60317;48.880;-0.862;2023-04-15T14:11:23;2.33;;;0.35;;
72358;SDS011;60317;48.880;-0.862;2023-04-15T14:13:49;0.32;;;0.32;;
72358;SDS011;60317;48.880;-0.862;2023-04-15T14:16:16;0.25;;;0.25;;
72358;SDS011;60317;48.880;-0.862;2023-04-15T14:18:43;0.98;;;0.40;;
72358;SDS011;60317;48.880;-0.862;2023-04-15T14:21:09;0.40;;;0.30;;
72358;SDS011;60317;48.880;-0.862;2023-04-15T14:23:36;0.52;;;0.40;;
72358;SDS011;60317;48.880;-0.862;2023-04-15T14:26:03;0.85;;;0.50;;
72358;SDS011;60317;48.880;-0.862;2023-04-15T14:28:31;0.88;;;0.38;;
72358;SDS011;60317;48.880;-0.862;2023-04-15T14:30:58;1.23;;;0.50;;
72358;SDS011;60317;48.880;-0.862;2023-04-15T14:33:24;2.40;;;0.50;;
72358;SDS011;60317;48.880;-0.862;2023-04-15T14:35:51;0.85;;;0.40;;
72358;SDS011;60317;48.880;-0.862;2023-04-15T14:38:17;0.65;;;0.30;;